sensor_id;sensor_type;location;lat;lon;timestamp;P1;durP1;ratioP1;P2;durP2;ratioP2
77591;SDS011;66891;46.884;17.436;2023-12-20T00:01:03;44.47;;;18.77;;
77591;SDS011;66891;46.884;17.436;2023-12-20T00:04:54;42.97;;;17.25;;
77591;SDS011;66891;46.884;17.436;2023-12-20T00:06:51;41.35;;;17.83;;
77591;SDS011;66891;46.884;17.436;2023-12-20T00:09:21;39.47;;;16.95;;
77591;SDS011;66891;46.884;17.436;2023-12-20T00:11:56;42.03;;;17.20;;
77591;SDS011;66891;46.884;17.436;2023-12-20T00:15:21;44.43;;;16.73;;
77591;SDS011;66891;46.884;17.436;2023-12-20T00:17:51;46.25;;;17.63;;
77591;SDS011;66891;46.884;17.436;2023-12-20T00:20:20;46.88;;;20.17;;
77591;SDS011;66891;46.884;17.436;2023-12-20T00:22:51;48.35;;;19.23;;
77591;SDS011;66891;46.884;17.436;2023-12-20T00:25:26;46.53;;;19.33;;
77591;SDS011;66891;46.884;17.436;2023-12-20T00:27:59;42.67;;;16.83;;
77591;SDS011;66891;46.884;17.436;2023-12-20T00:37:03;38.20;;;15.85;;
77591;SDS011;66891;46.884;17.436;2023-12-20T00:39:32;39.85;;;16.52;;
77591;SDS011;66891;46.884;17.436;2023-12-20T00:42:10;45.50;;;17.30;;
77591;SDS011;66891;46.884;17.436;2023-12-20T00:44:41;41.22;;;15.57;;
77591;SDS011;66891;46.884;17.436;2023-12-20T00:47:21;40.78;;;15.73;;
77591;SDS011;66891;46.884;17.436;2023-12-20T00:50:27;41.67;;;16.00;;
77591;SDS011;66891;46.884;17.436;2023-12-20T00:52:58;36.70;;;14.57;;
77591;SDS011;66891;46.884;17.436;2023-12-20T00:55:27;38.73;;;16.10;;
77591;SDS011;66891;46.884;17.436;2023-12-20T00:57:56;40.25;;;15.85;;
77591;SDS011;66891;46.884;17.436;2023-12-20T01:00:29;41.25;;;15.80;;
77591;SDS011;66891;46.884;17.436;2023-12-20T01:03:13;40.15;;;16.25;;
77591;SDS011;66891;46.884;17.436;2023-12-20T01:05:44;49.28;;;19.38;;
77591;SDS011;66891;46.884;17.436;2023-12-20T01:08:12;49.83;;;18.97;;
77591;SDS011;66891;46.884;17.436;2023-12-20T01:10:51;46.10;;;18.05;;
77591;SDS011;66891;46.884;17.436;2023-12-20T01:14:02;43.47;;;16.50;;
77591;SDS011;66891;46.884;17.436;2023-12-20T01:16:30;47.00;;;17.48;;
77591;SDS011;66891;46.884;17.436;2023-12-20T01:19:02;42.03;;;16.85;;
77591;SDS011;66891;46.884;17.436;2023-12-20T01:21:39;38.13;;;16.77;;
77591;SDS011;66891;46.884;17.436;2023-12-20T01:24:16;41.88;;;16.00;;
77591;SDS011;66891;46.884;17.436;2023-12-20T01:26:45;44.00;;;16.52;;
77591;SDS011;66891;46.884;17.436;2023-12-20T01:29:14;38.30;;;15.30;;
77591;SDS011;66891;46.884;17.436;2023-12-20T01:31:46;41.88;;;16.70;;
77591;SDS011;66891;46.884;17.436;2023-12-20T01:37:20;42.40;;;17.75;;
77591;SDS011;66891;46.884;17.436;2023-12-20T01:40:34;45.75;;;18.45;;
77591;SDS011;66891;46.884;17.436;2023-12-20T01:43:06;45.72;;;17.20;;
77591;SDS011;66891;46.884;17.436;2023-12-20T01:45:41;40.65;;;16.38;;
77591;SDS011;66891;46.884;17.436;2023-12-20T01:48:08;40.07;;;16.30;;
77591;SDS011;66891;46.884;17.436;2023-12-20T01:50:39;41.47;;;16.77;;
77591;SDS011;66891;46.884;17.436;2023-12-20T01:53:23;42.88;;;16.15;;
77591;SDS011;66891;46.884;17.436;2023-12-20T01:56:14;41.08;;;16.27;;
77591;SDS011;66891;46.884;17.436;2023-12-20T01:58:44;41.25;;;16.25;;
77591;SDS011;66891;46.884;17.436;2023-12-20T02:04:20;42.00;;;14.77;;
77591;SDS011;66891;46.884;17.436;2023-12-20T02:06:56;39.35;;;14.80;;
77591;SDS011;66891;46.884;17.436;2023-12-20T02:09:25;47.05;;;16.23;;
77591;SDS011;66891;46.884;17.436;2023-12-20T02:11:55;44.08;;;16.00;;
77591;SDS011;66891;46.884;17.436;2023-12-20T02:14:24;45.90;;;16.47;;
77591;SDS011;66891;46.884;17.436;2023-12-20T02:17:08;40.33;;;14.93;;
77591;SDS011;66891;46.884;17.436;2023-12-20T02:19:36;44.72;;;16.77;;
77591;SDS011;66891;46.884;17.436;2023-12-20T02:22:08;41.60;;;15.07;;
77591;SDS011;66891;46.884;17.436;2023-12-20T02:24:38;42.58;;;15.73;;
77591;SDS011;66891;46.884;17.436;2023-12-20T02:27:07;43.80;;;15.57;;
77591;SDS011;66891;46.884;17.436;2023-12-20T02:29:36;36.05;;;14.32;;
77591;SDS011;66891;46.884;17.436;2023-12-20T02:32:07;36.28;;;14.13;;
77591;SDS011;66891;46.884;17.436;2023-12-20T02:35:06;40.13;;;13.45;;
77591;SDS011;66891;46.884;17.436;2023-12-20T02:37:36;38.15;;;12.45;;
77591;SDS011;66891;46.884;17.436;2023-12-20T02:40:10;33.87;;;12.23;;
77591;SDS011;66891;46.884;17.436;2023-12-20T02:42:57;44.55;;;12.43;;
77591;SDS011;66891;46.884;17.436;2023-12-20T02:45:26;37.88;;;13.43;;
77591;SDS011;66891;46.884;17.436;2023-12-20T02:47:57;36.70;;;13.65;;
77591;SDS011;66891;46.884;17.436;2023-12-20T02:50:29;36.55;;;13.48;;
77591;SDS011;66891;46.884;17.436;2023-12-20T02:53:06;38.83;;;13.20;;
77591;SDS011;66891;46.884;17.436;2023-12-20T02:55:38;37.20;;;12.98;;
77591;SDS011;66891;46.884;17.436;2023-12-20T02:58:06;37.00;;;12.75;;
77591;SDS011;66891;46.884;17.436;2023-12-20T03:00:42;39.58;;;13.77;;
77591;SDS011;66891;46.884;17.436;2023-12-20T03:03:28;40.17;;;12.43;;
77591;SDS011;66891;46.884;17.436;2023-12-20T03:06:15;34.70;;;12.10;;
77591;SDS011;66891;46.884;17.436;2023-12-20T03:09:05;29.58;;;10.57;;
77591;SDS011;66891;46.884;17.436;2023-12-20T03:11:38;33.28;;;11.38;;
77591;SDS011;66891;46.884;17.436;2023-12-20T03:14:30;26.63;;;9.77;;
77591;SDS011;66891;46.884;17.436;2023-12-20T03:17:14;38.42;;;12.15;;
77591;SDS011;66891;46.884;17.436;2023-12-20T03:20:10;33.20;;;10.82;;
77591;SDS011;66891;46.884;17.436;2023-12-20T03:22:42;38.38;;;11.50;;
77591;SDS011;66891;46.884;17.436;2023-12-20T03:25:12;30.38;;;10.50;;
77591;SDS011;66891;46.884;17.436;2023-12-20T03:27:41;40.38;;;13.00;;
77591;SDS011;66891;46.884;17.436;2023-12-20T03:30:10;41.83;;;14.07;;
77591;SDS011;66891;46.884;17.436;2023-12-20T03:33:23;43.00;;;13.00;;
77591;SDS011;66891;46.884;17.436;2023-12-20T03:36:07;39.90;;;12.45;;
77591;SDS011;66891;46.884;17.436;2023-12-20T03:38:36;46.47;;;14.45;;
77591;SDS011;66891;46.884;17.436;2023-12-20T03:41:13;38.92;;;12.93;;
77591;SDS011;66891;46.884;17.436;2023-12-20T03:44:10;49.78;;;15.95;;
77591;SDS011;66891;46.884;17.436;2023-12-20T03:46:52;37.17;;;12.33;;
77591;SDS011;66891;46.884;17.436;2023-12-20T03:49:32;41.08;;;13.15;;
77591;SDS011;66891;46.884;17.436;2023-12-20T03:52:01;39.22;;;13.45;;
77591;SDS011;66891;46.884;17.436;2023-12-20T03:54:31;35.55;;;11.32;;
77591;SDS011;66891;46.884;17.436;2023-12-20T03:57:01;34.92;;;11.60;;
77591;SDS011;66891;46.884;17.436;2023-12-20T03:59:31;40.67;;;13.07;;
77591;SDS011;66891;46.884;17.436;2023-12-20T04:03:06;48.33;;;14.85;;
77591;SDS011;66891;46.884;17.436;2023-12-20T04:11:42;44.15;;;13.57;;
77591;SDS011;66891;46.884;17.436;2023-12-20T04:15:06;37.33;;;12.55;;
77591;SDS011;66891;46.884;17.436;2023-12-20T04:17:36;37.35;;;12.52;;
77591;SDS011;66891;46.884;17.436;2023-12-20T04:23:43;47.03;;;14.07;;
77591;SDS011;66891;46.884;17.436;2023-12-20T04:26:48;41.30;;;14.23;;
77591;SDS011;66891;46.884;17.436;2023-12-20T04:29:22;42.37;;;13.83;;
77591;SDS011;66891;46.884;17.436;2023-12-20T04:32:12;45.78;;;14.43;;
77591;SDS011;66891;46.884;17.436;2023-12-20T04:34:40;39.33;;;14.00;;
77591;SDS011;66891;46.884;17.436;2023-12-20T04:37:30;38.70;;;13.32;;
77591;SDS011;66891;46.884;17.436;2023-12-20T04:40:15;40.92;;;13.15;;
77591;SDS011;66891;46.884;17.436;2023-12-20T04:42:43;39.53;;;14.17;;
77591;SDS011;66891;46.884;17.436;2023-12-20T04:45:30;38.25;;;13.95;;
77591;SDS011;66891;46.884;17.436;2023-12-20T04:48:01;38.17;;;14.77;;
77591;SDS011;66891;46.884;17.436;2023-12-20T04:50:41;41.85;;;15.98;;
77591;SDS011;66891;46.884;17.436;2023-12-20T04:53:12;39.55;;;14.52;;
77591;SDS011;66891;46.884;17.436;2023-12-20T04:58:52;36.97;;;12.35;;
77591;SDS011;66891;46.884;17.436;2023-12-20T05:01:42;38.28;;;14.20;;
77591;SDS011;66891;46.884;17.436;2023-12-20T05:04:11;37.13;;;13.70;;
77591;SDS011;66891;46.884;17.436;2023-12-20T05:06:46;46.85;;;16.48;;
77591;SDS011;66891;46.884;17.436;2023-12-20T05:09:16;41.17;;;15.30;;
77591;SDS011;66891;46.884;17.436;2023-12-20T05:11:48;38.45;;;13.35;;
77591;SDS011;66891;46.884;17.436;2023-12-20T05:14:51;34.60;;;12.55;;
77591;SDS011;66891;46.884;17.436;2023-12-20T05:17:21;33.92;;;12.65;;
77591;SDS011;66891;46.884;17.436;2023-12-20T05:20:21;33.47;;;12.93;;
77591;SDS011;66891;46.884;17.436;2023-12-20T05:22:59;32.90;;;12.57;;
77591;SDS011;66891;46.884;17.436;2023-12-20T05:25:41;35.05;;;14.18;;
77591;SDS011;66891;46.884;17.436;2023-12-20T05:31:01;30.25;;;10.18;;
77591;SDS011;66891;46.884;17.436;2023-12-20T05:33:49;37.83;;;12.35;;
77591;SDS011;66891;46.884;17.436;2023-12-20T05:36:41;36.83;;;13.43;;
77591;SDS011;66891;46.884;17.436;2023-12-20T05:39:08;44.30;;;16.13;;
77591;SDS011;66891;46.884;17.436;2023-12-20T05:41:54;41.90;;;16.13;;
77591;SDS011;66891;46.884;17.436;2023-12-20T05:44:41;39.33;;;13.68;;
77591;SDS011;66891;46.884;17.436;2023-12-20T05:47:27;39.63;;;14.63;;
77591;SDS011;66891;46.884;17.436;2023-12-20T05:49:55;39.13;;;13.63;;
77591;SDS011;66891;46.884;17.436;2023-12-20T05:52:23;42.28;;;13.80;;
77591;SDS011;66891;46.884;17.436;2023-12-20T05:54:51;36.88;;;11.93;;
77591;SDS011;66891;46.884;17.436;2023-12-20T06:00:24;36.60;;;12.88;;
77591;SDS011;66891;46.884;17.436;2023-12-20T06:03:00;35.17;;;11.07;;
77591;SDS011;66891;46.884;17.436;2023-12-20T06:05:40;33.80;;;11.65;;
77591;SDS011;66891;46.884;17.436;2023-12-20T06:08:14;34.88;;;12.15;;
77591;SDS011;66891;46.884;17.436;2023-12-20T06:10:45;39.45;;;12.45;;
77591;SDS011;66891;46.884;17.436;2023-12-20T06:13:19;39.83;;;12.95;;
77591;SDS011;66891;46.884;17.436;2023-12-20T06:15:49;43.50;;;13.37;;
77591;SDS011;66891;46.884;17.436;2023-12-20T06:18:34;34.67;;;12.15;;
77591;SDS011;66891;46.884;17.436;2023-12-20T06:21:05;42.97;;;13.40;;
77591;SDS011;66891;46.884;17.436;2023-12-20T06:23:36;33.45;;;11.38;;
77591;SDS011;66891;46.884;17.436;2023-12-20T06:26:04;37.90;;;12.43;;
77591;SDS011;66891;46.884;17.436;2023-12-20T06:28:32;42.67;;;13.77;;
77591;SDS011;66891;46.884;17.436;2023-12-20T06:30:59;45.70;;;15.57;;
77591;SDS011;66891;46.884;17.436;2023-12-20T06:33:27;44.15;;;16.35;;
77591;SDS011;66891;46.884;17.436;2023-12-20T06:35:56;42.28;;;14.88;;
77591;SDS011;66891;46.884;17.436;2023-12-20T06:38:25;40.25;;;14.13;;
77591;SDS011;66891;46.884;17.436;2023-12-20T06:41:02;44.67;;;16.27;;
77591;SDS011;66891;46.884;17.436;2023-12-20T06:43:43;44.10;;;15.75;;
77591;SDS011;66891;46.884;17.436;2023-12-20T06:46:20;39.58;;;15.30;;
77591;SDS011;66891;46.884;17.436;2023-12-20T06:49:19;39.83;;;13.93;;
77591;SDS011;66891;46.884;17.436;2023-12-20T06:51:46;61.90;;;20.40;;
77591;SDS011;66891;46.884;17.436;2023-12-20T06:54:14;69.23;;;23.07;;
77591;SDS011;66891;46.884;17.436;2023-12-20T06:56:43;52.03;;;17.48;;
77591;SDS011;66891;46.884;17.436;2023-12-20T06:59:15;42.60;;;16.65;;
77591;SDS011;66891;46.884;17.436;2023-12-20T07:01:42;44.15;;;16.02;;
77591;SDS011;66891;46.884;17.436;2023-12-20T07:04:15;39.95;;;14.07;;
77591;SDS011;66891;46.884;17.436;2023-12-20T07:07:02;39.33;;;13.97;;
77591;SDS011;66891;46.884;17.436;2023-12-20T07:09:50;36.85;;;12.02;;
77591;SDS011;66891;46.884;17.436;2023-12-20T07:12:20;39.95;;;13.48;;
77591;SDS011;66891;46.884;17.436;2023-12-20T07:14:48;56.72;;;20.40;;
77591;SDS011;66891;46.884;17.436;2023-12-20T07:17:34;56.20;;;20.17;;
77591;SDS011;66891;46.884;17.436;2023-12-20T07:20:02;53.00;;;18.50;;
77591;SDS011;66891;46.884;17.436;2023-12-20T07:22:31;45.80;;;17.15;;
77591;SDS011;66891;46.884;17.436;2023-12-20T07:24:59;49.33;;;15.98;;
77591;SDS011;66891;46.884;17.436;2023-12-20T07:27:30;37.88;;;12.85;;
77591;SDS011;66891;46.884;17.436;2023-12-20T07:29:58;46.90;;;15.80;;
77591;SDS011;66891;46.884;17.436;2023-12-20T07:32:29;53.17;;;16.87;;
77591;SDS011;66891;46.884;17.436;2023-12-20T07:35:04;59.47;;;22.65;;
77591;SDS011;66891;46.884;17.436;2023-12-20T07:38:04;60.67;;;19.40;;
77591;SDS011;66891;46.884;17.436;2023-12-20T07:40:45;57.75;;;18.15;;
77591;SDS011;66891;46.884;17.436;2023-12-20T07:43:31;48.03;;;16.90;;
77591;SDS011;66891;46.884;17.436;2023-12-20T07:46:22;46.33;;;15.47;;
77591;SDS011;66891;46.884;17.436;2023-12-20T07:49:14;52.35;;;17.92;;
77591;SDS011;66891;46.884;17.436;2023-12-20T07:52:11;51.72;;;19.33;;
77591;SDS011;66891;46.884;17.436;2023-12-20T07:54:39;56.80;;;20.70;;
77591;SDS011;66891;46.884;17.436;2023-12-20T07:57:06;57.80;;;22.60;;
77591;SDS011;66891;46.884;17.436;2023-12-20T07:59:44;46.13;;;16.43;;
77591;SDS011;66891;46.884;17.436;2023-12-20T08:02:15;48.70;;;16.40;;
77591;SDS011;66891;46.884;17.436;2023-12-20T08:04:53;47.83;;;18.05;;
77591;SDS011;66891;46.884;17.436;2023-12-20T08:07:45;53.83;;;19.52;;
77591;SDS011;66891;46.884;17.436;2023-12-20T08:10:42;43.88;;;14.88;;
77591;SDS011;66891;46.884;17.436;2023-12-20T08:13:16;36.83;;;13.10;;
77591;SDS011;66891;46.884;17.436;2023-12-20T08:16:21;43.40;;;14.32;;
77591;SDS011;66891;46.884;17.436;2023-12-20T08:18:59;35.47;;;12.43;;
77591;SDS011;66891;46.884;17.436;2023-12-20T08:21:39;31.35;;;12.40;;
77591;SDS011;66891;46.884;17.436;2023-12-20T08:24:09;38.97;;;12.60;;
77591;SDS011;66891;46.884;17.436;2023-12-20T08:26:39;36.03;;;13.60;;
77591;SDS011;66891;46.884;17.436;2023-12-20T08:29:31;39.95;;;13.70;;
77591;SDS011;66891;46.884;17.436;2023-12-20T08:32:03;41.33;;;12.35;;
77591;SDS011;66891;46.884;17.436;2023-12-20T08:35:10;34.15;;;11.55;;
77591;SDS011;66891;46.884;17.436;2023-12-20T08:37:38;41.10;;;12.85;;
77591;SDS011;66891;46.884;17.436;2023-12-20T08:40:32;40.30;;;13.53;;
77591;SDS011;66891;46.884;17.436;2023-12-20T08:45:58;42.70;;;14.90;;
77591;SDS011;66891;46.884;17.436;2023-12-20T08:48:29;71.72;;;25.45;;
77591;SDS011;66891;46.884;17.436;2023-12-20T08:50:57;46.22;;;16.45;;
77591;SDS011;66891;46.884;17.436;2023-12-20T08:53:24;45.90;;;17.73;;
77591;SDS011;66891;46.884;17.436;2023-12-20T08:56:00;44.72;;;15.80;;
77591;SDS011;66891;46.884;17.436;2023-12-20T08:59:28;40.90;;;13.98;;
77591;SDS011;66891;46.884;17.436;2023-12-20T09:02:11;34.17;;;13.63;;
77591;SDS011;66891;46.884;17.436;2023-12-20T09:05:14;39.92;;;13.45;;
77591;SDS011;66891;46.884;17.436;2023-12-20T09:08:07;44.93;;;17.37;;
77591;SDS011;66891;46.884;17.436;2023-12-20T09:10:37;50.45;;;17.20;;
77591;SDS011;66891;46.884;17.436;2023-12-20T09:13:10;43.25;;;15.15;;
77591;SDS011;66891;46.884;17.436;2023-12-20T09:18:50;48.80;;;18.33;;
77591;SDS011;66891;46.884;17.436;2023-12-20T09:21:20;75.45;;;30.77;;
77591;SDS011;66891;46.884;17.436;2023-12-20T09:26:48;37.85;;;14.60;;
77591;SDS011;66891;46.884;17.436;2023-12-20T09:31:57;47.28;;;17.13;;
77591;SDS011;66891;46.884;17.436;2023-12-20T09:34:25;36.90;;;13.50;;
77591;SDS011;66891;46.884;17.436;2023-12-20T09:36:56;45.90;;;16.10;;
77591;SDS011;66891;46.884;17.436;2023-12-20T09:39:39;43.85;;;15.38;;
77591;SDS011;66891;46.884;17.436;2023-12-20T09:42:06;45.17;;;16.35;;
77591;SDS011;66891;46.884;17.436;2023-12-20T09:44:34;46.88;;;17.27;;
77591;SDS011;66891;46.884;17.436;2023-12-20T09:47:14;42.97;;;16.37;;
77591;SDS011;66891;46.884;17.436;2023-12-20T09:49:43;40.38;;;16.38;;
77591;SDS011;66891;46.884;17.436;2023-12-20T09:52:19;45.58;;;17.10;;
77591;SDS011;66891;46.884;17.436;2023-12-20T09:55:18;40.97;;;16.13;;
77591;SDS011;66891;46.884;17.436;2023-12-20T09:57:57;35.45;;;13.70;;
77591;SDS011;66891;46.884;17.436;2023-12-20T10:00:33;39.20;;;14.13;;
77591;SDS011;66891;46.884;17.436;2023-12-20T10:03:10;36.42;;;13.18;;
77591;SDS011;66891;46.884;17.436;2023-12-20T10:05:43;41.30;;;14.68;;
77591;SDS011;66891;46.884;17.436;2023-12-20T10:08:22;44.20;;;16.33;;
77591;SDS011;66891;46.884;17.436;2023-12-20T10:11:05;41.65;;;15.75;;
77591;SDS011;66891;46.884;17.436;2023-12-20T10:13:47;47.43;;;16.20;;
77591;SDS011;66891;46.884;17.436;2023-12-20T10:16:15;48.55;;;19.27;;
77591;SDS011;66891;46.884;17.436;2023-12-20T10:18:45;44.80;;;17.45;;
77591;SDS011;66891;46.884;17.436;2023-12-20T10:21:54;43.45;;;14.70;;
77591;SDS011;66891;46.884;17.436;2023-12-20T10:24:27;43.20;;;16.98;;
77591;SDS011;66891;46.884;17.436;2023-12-20T10:27:02;50.37;;;18.03;;
77591;SDS011;66891;46.884;17.436;2023-12-20T10:29:32;55.63;;;21.05;;
77591;SDS011;66891;46.884;17.436;2023-12-20T10:32:22;40.90;;;15.90;;
77591;SDS011;66891;46.884;17.436;2023-12-20T10:34:51;37.88;;;15.32;;
77591;SDS011;66891;46.884;17.436;2023-12-20T10:37:18;48.53;;;18.90;;
77591;SDS011;66891;46.884;17.436;2023-12-20T10:39:52;46.40;;;20.43;;
77591;SDS011;66891;46.884;17.436;2023-12-20T10:42:30;49.03;;;19.95;;
77591;SDS011;66891;46.884;17.436;2023-12-20T10:45:31;72.50;;;27.52;;
77591;SDS011;66891;46.884;17.436;2023-12-20T10:47:59;67.20;;;28.42;;
77591;SDS011;66891;46.884;17.436;2023-12-20T10:50:31;60.03;;;24.55;;
77591;SDS011;66891;46.884;17.436;2023-12-20T10:53:23;59.58;;;23.95;;
77591;SDS011;66891;46.884;17.436;2023-12-20T10:56:02;62.58;;;26.10;;
77591;SDS011;66891;46.884;17.436;2023-12-20T10:58:29;60.80;;;26.23;;
77591;SDS011;66891;46.884;17.436;2023-12-20T11:01:02;60.05;;;26.77;;
77591;SDS011;66891;46.884;17.436;2023-12-20T11:03:53;52.85;;;23.80;;
77591;SDS011;66891;46.884;17.436;2023-12-20T11:06:40;51.47;;;22.85;;
77591;SDS011;66891;46.884;17.436;2023-12-20T11:09:24;51.58;;;22.55;;
77591;SDS011;66891;46.884;17.436;2023-12-20T12:08:40;61.25;;;24.85;;
77591;SDS011;66891;46.884;17.436;2023-12-20T12:11:09;116.65;;;40.80;;
77591;SDS011;66891;46.884;17.436;2023-12-20T12:13:36;69.15;;;27.23;;
77591;SDS011;66891;46.884;17.436;2023-12-20T12:16:06;68.95;;;28.45;;
77591;SDS011;66891;46.884;17.436;2023-12-20T12:18:38;59.20;;;27.30;;
77591;SDS011;66891;46.884;17.436;2023-12-20T12:21:18;57.58;;;24.48;;
77591;SDS011;66891;46.884;17.436;2023-12-20T12:24:11;60.42;;;25.42;;
77591;SDS011;66891;46.884;17.436;2023-12-20T12:26:41;52.80;;;22.67;;
77591;SDS011;66891;46.884;17.436;2023-12-20T12:29:14;70.28;;;27.55;;
77591;SDS011;66891;46.884;17.436;2023-12-20T12:31:45;58.53;;;25.67;;
77591;SDS011;66891;46.884;17.436;2023-12-20T12:34:25;58.55;;;26.50;;
77591;SDS011;66891;46.884;17.436;2023-12-20T12:37:08;45.53;;;21.02;;
77591;SDS011;66891;46.884;17.436;2023-12-20T12:39:53;28.25;;;11.63;;
77591;SDS011;66891;46.884;17.436;2023-12-20T13:24:21;23.08;;;9.88;;
77591;SDS011;66891;46.884;17.436;2023-12-20T13:27:18;25.80;;;11.70;;
77591;SDS011;66891;46.884;17.436;2023-12-20T13:30:11;29.30;;;12.80;;
77591;SDS011;66891;46.884;17.436;2023-12-20T13:33:52;25.17;;;10.82;;
77591;SDS011;66891;46.884;17.436;2023-12-20T13:41:36;29.30;;;12.82;;
77591;SDS011;66891;46.884;17.436;2023-12-20T13:44:08;26.77;;;12.57;;
77591;SDS011;66891;46.884;17.436;2023-12-20T13:46:59;21.55;;;9.85;;
77591;SDS011;66891;46.884;17.436;2023-12-20T13:49:42;22.60;;;10.27;;
77591;SDS011;66891;46.884;17.436;2023-12-20T17:45:41;61.40;;;27.60;;
77591;SDS011;66891;46.884;17.436;2023-12-20T17:48:08;68.35;;;29.30;;
77591;SDS011;66891;46.884;17.436;2023-12-20T17:50:36;73.63;;;33.42;;
77591;SDS011;66891;46.884;17.436;2023-12-20T17:53:03;63.13;;;27.70;;
77591;SDS011;66891;46.884;17.436;2023-12-20T17:55:30;59.75;;;23.63;;
77591;SDS011;66891;46.884;17.436;2023-12-20T17:57:57;57.17;;;25.17;;
77591;SDS011;66891;46.884;17.436;2023-12-20T18:00:25;59.10;;;27.58;;
77591;SDS011;66891;46.884;17.436;2023-12-20T18:02:55;59.13;;;27.83;;
77591;SDS011;66891;46.884;17.436;2023-12-20T18:05:22;58.38;;;25.20;;
77591;SDS011;66891;46.884;17.436;2023-12-20T18:08:37;59.33;;;25.30;;
77591;SDS011;66891;46.884;17.436;2023-12-20T18:11:05;59.10;;;26.27;;
77591;SDS011;66891;46.884;17.436;2023-12-20T18:13:38;70.38;;;30.42;;
77591;SDS011;66891;46.884;17.436;2023-12-20T18:16:06;62.58;;;28.73;;
77591;SDS011;66891;46.884;17.436;2023-12-20T18:18:38;58.90;;;27.20;;
77591;SDS011;66891;46.884;17.436;2023-12-20T18:25:05;70.70;;;34.40;;
77591;SDS011;66891;46.884;17.436;2023-12-20T18:27:38;69.88;;;33.38;;
77591;SDS011;66891;46.884;17.436;2023-12-20T18:30:06;63.13;;;30.60;;
77591;SDS011;66891;46.884;17.436;2023-12-20T18:32:42;79.53;;;33.30;;
77591;SDS011;66891;46.884;17.436;2023-12-20T18:35:11;75.03;;;32.35;;
77591;SDS011;66891;46.884;17.436;2023-12-20T18:37:38;70.50;;;32.38;;
77591;SDS011;66891;46.884;17.436;2023-12-20T18:40:06;106.25;;;42.72;;
77591;SDS011;66891;46.884;17.436;2023-12-20T18:42:34;172.30;;;57.60;;
77591;SDS011;66891;46.884;17.436;2023-12-20T18:45:02;108.37;;;40.63;;
77591;SDS011;66891;46.884;17.436;2023-12-20T18:47:31;97.00;;;37.38;;
77591;SDS011;66891;46.884;17.436;2023-12-20T18:49:58;132.85;;;50.05;;
77591;SDS011;66891;46.884;17.436;2023-12-20T18:52:30;97.47;;;39.92;;
77591;SDS011;66891;46.884;17.436;2023-12-20T18:54:57;80.95;;;35.83;;
77591;SDS011;66891;46.884;17.436;2023-12-20T18:57:24;63.43;;;26.20;;
77591;SDS011;66891;46.884;17.436;2023-12-20T18:59:51;60.45;;;26.35;;
77591;SDS011;66891;46.884;17.436;2023-12-20T19:02:19;68.88;;;29.52;;
77591;SDS011;66891;46.884;17.436;2023-12-20T19:04:46;77.80;;;33.95;;
77591;SDS011;66891;46.884;17.436;2023-12-20T19:07:13;79.43;;;33.08;;
77591;SDS011;66891;46.884;17.436;2023-12-20T19:09:41;64.43;;;28.67;;
77591;SDS011;66891;46.884;17.436;2023-12-20T19:12:08;75.68;;;33.47;;
77591;SDS011;66891;46.884;17.436;2023-12-20T19:14:35;92.50;;;38.25;;
77591;SDS011;66891;46.884;17.436;2023-12-20T19:17:02;107.75;;;44.47;;
77591;SDS011;66891;46.884;17.436;2023-12-20T19:19:31;96.47;;;40.25;;
77591;SDS011;66891;46.884;17.436;2023-12-20T19:21:58;93.53;;;40.40;;
77591;SDS011;66891;46.884;17.436;2023-12-20T19:24:26;112.30;;;44.42;;
77591;SDS011;66891;46.884;17.436;2023-12-20T19:26:54;92.82;;;38.95;;
77591;SDS011;66891;46.884;17.436;2023-12-20T19:29:23;110.57;;;44.53;;
77591;SDS011;66891;46.884;17.436;2023-12-20T19:31:50;90.07;;;37.70;;
77591;SDS011;66891;46.884;17.436;2023-12-20T19:34:21;126.17;;;50.77;;
77591;SDS011;66891;46.884;17.436;2023-12-20T19:36:49;111.65;;;46.47;;
77591;SDS011;66891;46.884;17.436;2023-12-20T19:39:16;115.13;;;46.58;;
77591;SDS011;66891;46.884;17.436;2023-12-20T19:41:44;121.13;;;48.42;;
77591;SDS011;66891;46.884;17.436;2023-12-20T19:44:12;111.53;;;46.90;;
77591;SDS011;66891;46.884;17.436;2023-12-20T19:46:43;119.43;;;49.63;;
77591;SDS011;66891;46.884;17.436;2023-12-20T19:49:10;110.82;;;47.00;;
77591;SDS011;66891;46.884;17.436;2023-12-20T19:51:37;114.25;;;45.47;;
77591;SDS011;66891;46.884;17.436;2023-12-20T19:54:05;113.18;;;45.17;;
77591;SDS011;66891;46.884;17.436;2023-12-20T19:56:32;121.68;;;47.17;;
77591;SDS011;66891;46.884;17.436;2023-12-20T19:58:59;112.33;;;41.40;;
77591;SDS011;66891;46.884;17.436;2023-12-20T20:01:28;109.78;;;44.85;;
77591;SDS011;66891;46.884;17.436;2023-12-20T20:03:55;103.75;;;43.35;;
77591;SDS011;66891;46.884;17.436;2023-12-20T20:06:23;95.43;;;41.30;;
77591;SDS011;66891;46.884;17.436;2023-12-20T20:08:50;92.50;;;38.20;;
77591;SDS011;66891;46.884;17.436;2023-12-20T20:11:18;134.73;;;49.63;;
77591;SDS011;66891;46.884;17.436;2023-12-20T20:14:00;96.75;;;39.22;;
77591;SDS011;66891;46.884;17.436;2023-12-20T20:16:28;88.20;;;36.03;;
77591;SDS011;66891;46.884;17.436;2023-12-20T20:18:56;100.93;;;39.75;;
77591;SDS011;66891;46.884;17.436;2023-12-20T20:21:24;94.22;;;39.15;;
77591;SDS011;66891;46.884;17.436;2023-12-20T20:23:51;116.63;;;46.73;;
77591;SDS011;66891;46.884;17.436;2023-12-20T20:26:19;107.40;;;41.30;;
77591;SDS011;66891;46.884;17.436;2023-12-20T20:28:46;112.00;;;42.15;;
77591;SDS011;66891;46.884;17.436;2023-12-20T20:31:13;153.80;;;56.65;;
77591;SDS011;66891;46.884;17.436;2023-12-20T20:33:42;136.25;;;53.35;;
77591;SDS011;66891;46.884;17.436;2023-12-20T20:36:09;132.07;;;49.37;;
77591;SDS011;66891;46.884;17.436;2023-12-20T20:38:36;126.70;;;49.45;;
77591;SDS011;66891;46.884;17.436;2023-12-20T20:41:03;146.85;;;51.03;;
77591;SDS011;66891;46.884;17.436;2023-12-20T20:43:30;119.43;;;47.40;;
77591;SDS011;66891;46.884;17.436;2023-12-20T20:45:58;113.25;;;44.35;;
77591;SDS011;66891;46.884;17.436;2023-12-20T20:48:25;112.63;;;43.33;;
77591;SDS011;66891;46.884;17.436;2023-12-20T20:51:03;114.13;;;44.38;;
77591;SDS011;66891;46.884;17.436;2023-12-20T20:53:30;111.40;;;42.20;;
77591;SDS011;66891;46.884;17.436;2023-12-20T20:55:57;109.50;;;43.63;;
77591;SDS011;66891;46.884;17.436;2023-12-20T20:58:28;121.43;;;43.60;;
77591;SDS011;66891;46.884;17.436;2023-12-20T21:00:55;112.37;;;44.13;;
77591;SDS011;66891;46.884;17.436;2023-12-20T21:03:23;114.97;;;44.90;;
77591;SDS011;66891;46.884;17.436;2023-12-20T21:05:53;123.72;;;47.85;;
77591;SDS011;66891;46.884;17.436;2023-12-20T21:08:21;124.47;;;48.00;;
77591;SDS011;66891;46.884;17.436;2023-12-20T21:10:48;121.20;;;47.30;;
77591;SDS011;66891;46.884;17.436;2023-12-20T21:13:16;118.00;;;46.80;;
77591;SDS011;66891;46.884;17.436;2023-12-20T21:15:43;134.13;;;50.55;;
77591;SDS011;66891;46.884;17.436;2023-12-20T21:18:10;126.18;;;46.72;;
77591;SDS011;66891;46.884;17.436;2023-12-20T21:20:37;125.05;;;48.08;;